createdAt,value
2022-11-29T00:01:32.984Z,90.60
2022-11-29T00:04:00.704Z,90.90
2022-11-29T00:06:31.428Z,90.80
2022-11-29T00:09:02.008Z,90.80
2022-11-29T00:11:51.989Z,91.00
2022-11-29T00:14:20.061Z,91.00
2022-11-29T00:16:52.191Z,91.10
2022-11-29T00:19:20.273Z,91.40
2022-11-29T00:21:47.859Z,91.30
2022-11-29T00:24:15.005Z,91.30
2022-11-29T00:26:42.315Z,91.40
2022-11-29T00:29:12.261Z,91.30
2022-11-29T00:31:39.845Z,91.00
2022-11-29T00:34:07.775Z,90.80
2022-11-29T00:36:35.636Z,90.90
2022-11-29T00:39:05.093Z,90.60
2022-11-29T00:41:33.015Z,90.60
2022-11-29T00:44:00.912Z,90.40
2022-11-29T00:46:28.191Z,90.10
2022-11-29T00:48:55.606Z,89.50
2022-11-29T00:51:22.843Z,89.10
2022-11-29T00:53:50.027Z,88.90
2022-11-29T00:56:17.266Z,88.60
2022-11-29T00:58:44.582Z,88.50
2022-11-29T01:01:12.058Z,88.40
2022-11-29T01:03:39.503Z,88.30
2022-11-29T01:06:09.604Z,88.00
2022-11-29T01:08:37.581Z,87.60
2022-11-29T01:11:14.580Z,87.60
2022-11-29T01:13:42.598Z,88.00
2022-11-29T01:16:09.809Z,88.80
2022-11-29T01:18:38.240Z,88.00
2022-11-29T01:21:15.795Z,87.50
2022-11-29T01:23:43.912Z,86.70
2022-11-29T01:26:26.572Z,86.70
2022-11-29T01:28:55.517Z,86.30
2022-11-29T01:31:27.068Z,85.60
2022-11-29T01:33:59.405Z,85.00
2022-11-29T01:36:26.860Z,85.00
2022-11-29T01:38:54.484Z,85.00
2022-11-29T01:41:25.296Z,84.50
2022-11-29T01:44:03.537Z,84.60
2022-11-29T01:46:36.747Z,84.10
2022-11-29T01:49:08.537Z,83.60
2022-11-29T01:51:37.885Z,83.60
2022-11-29T01:54:06.309Z,83.50
2022-11-29T01:56:35.343Z,83.60
2022-11-29T01:59:07.933Z,83.50
2022-11-29T02:01:36.713Z,83.30
2022-11-29T02:04:04.745Z,83.30
2022-11-29T02:06:32.314Z,83.70
2022-11-29T02:08:59.623Z,83.80
2022-11-29T02:11:35.190Z,84.00
2022-11-29T02:14:30.418Z,83.90
2022-11-29T02:17:00.350Z,83.90
2022-11-29T02:19:57.712Z,83.90
2022-11-29T02:22:38.556Z,83.90
2022-11-29T02:25:17.744Z,83.90
2022-11-29T02:28:09.685Z,84.10
2022-11-29T02:30:58.440Z,84.20
2022-11-29T02:33:49.409Z,84.50
2022-11-29T02:36:53.886Z,84.50
2022-11-29T02:39:44.190Z,84.60
2022-11-29T02:42:55.720Z,84.70
2022-11-29T02:45:32.742Z,84.90
2022-11-29T02:48:14.736Z,85.10
2022-11-29T02:50:57.360Z,85.50
2022-11-29T02:53:38.294Z,85.70
2022-11-29T02:56:14.586Z,86.10
2022-11-29T02:58:55.761Z,85.90
2022-11-29T03:01:31.007Z,84.90
2022-11-29T03:04:14.131Z,84.60
2022-11-29T03:06:54.689Z,84.70
2022-11-29T03:09:46.614Z,84.30
2022-11-29T03:12:45.364Z,83.90
2022-11-29T03:15:27.759Z,83.90
2022-11-29T03:18:13.410Z,83.60
2022-11-29T03:21:03.623Z,83.30
2022-11-29T03:23:39.354Z,83.00
2022-11-29T03:26:16.216Z,82.90
2022-11-29T03:29:07.474Z,82.70
2022-11-29T03:31:42.420Z,82.60
2022-11-29T03:34:15.501Z,82.40
2022-11-29T03:36:46.095Z,82.60
2022-11-29T03:39:19.521Z,82.70
2022-11-29T03:41:57.355Z,82.40
2022-11-29T03:44:45.149Z,82.10
2022-11-29T03:47:19.984Z,82.10
2022-11-29T03:49:56.462Z,82.30
2022-11-29T03:52:36.269Z,83.20
2022-11-29T03:55:09.290Z,82.80
2022-11-29T03:58:15.909Z,82.20
2022-11-29T04:01:15.807Z,82.20
2022-11-29T04:04:09.458Z,81.90
2022-11-29T04:06:57.987Z,81.70
2022-11-29T04:09:34.269Z,82.10
2022-11-29T04:12:07.391Z,82.50
2022-11-29T04:14:57.733Z,83.30
2022-11-29T04:17:30.773Z,84.50
2022-11-29T04:20:29.880Z,85.80
2022-11-29T04:23:37.837Z,86.90
2022-11-29T04:26:48.850Z,89.40
2022-11-29T04:29:40.349Z,93.70
2022-11-29T04:32:19.827Z,95.20
2022-11-29T04:34:56.206Z,98.10
2022-11-29T04:37:41.147Z,99.90
2022-11-29T04:40:47.301Z,99.90
2022-11-29T04:43:33.113Z,99.90
2022-11-29T04:46:41.587Z,99.90
2022-11-29T04:49:36.360Z,99.90
2022-11-29T04:52:41.725Z,99.90
2022-11-29T04:55:53.830Z,99.90
2022-11-29T04:58:58.860Z,99.90
2022-11-29T05:01:47.250Z,99.90
2022-11-29T05:04:39.637Z,99.90
2022-11-29T05:07:29.582Z,99.90
2022-11-29T05:10:15.398Z,99.90
2022-11-29T05:13:19.957Z,99.90
2022-11-29T05:15:59.825Z,99.90
2022-11-29T05:18:35.853Z,99.90
2022-11-29T05:21:27.934Z,99.90
2022-11-29T05:24:07.100Z,99.90
2022-11-29T05:26:55.391Z,99.90
2022-11-29T05:29:50.322Z,99.90
2022-11-29T05:32:35.796Z,99.90
2022-11-29T05:35:18.333Z,99.90
2022-11-29T05:37:49.396Z,99.90
2022-11-29T05:40:43.466Z,99.90
2022-11-29T05:43:18.969Z,99.90
2022-11-29T05:45:58.301Z,99.90
2022-11-29T05:48:31.801Z,99.90
2022-11-29T05:51:28.801Z,99.90
2022-11-29T05:54:33.999Z,99.90
2022-11-29T05:57:32.009Z,99.90
2022-11-29T06:00:02.244Z,99.90
2022-11-29T06:02:45.043Z,99.90
2022-11-29T06:05:33.842Z,99.90
2022-11-29T06:08:07.276Z,99.90
2022-11-29T06:10:40.162Z,99.90
2022-11-29T06:13:29.708Z,99.90
2022-11-29T06:16:18.650Z,99.90
2022-11-29T06:19:12.089Z,99.90
2022-11-29T06:22:00.262Z,99.90
2022-11-29T06:24:43.354Z,99.90
2022-11-29T06:27:21.977Z,99.90
2022-11-29T06:30:01.113Z,99.90
2022-11-29T06:33:01.501Z,99.90
2022-11-29T06:35:47.218Z,99.90
2022-11-29T06:38:23.661Z,99.90
2022-11-29T06:40:56.048Z,99.90
2022-11-29T06:43:27.688Z,99.90
2022-11-29T06:46:35.271Z,99.90
2022-11-29T06:49:02.669Z,99.90
2022-11-29T06:51:29.812Z,99.90
2022-11-29T06:54:17.238Z,99.90
2022-11-29T06:56:55.805Z,99.90
2022-11-29T06:59:40.883Z,99.90
2022-11-29T07:02:26.226Z,99.90
2022-11-29T07:04:53.478Z,99.90
2022-11-29T07:07:22.884Z,99.90
2022-11-29T07:09:53.409Z,99.90
2022-11-29T07:12:20.954Z,99.90
2022-11-29T07:14:48.445Z,99.90
2022-11-29T07:17:32.598Z,99.90
2022-11-29T07:20:24.072Z,99.90
2022-11-29T07:23:13.363Z,99.90
2022-11-29T07:26:05.035Z,99.90
2022-11-29T07:28:38.114Z,99.90
2022-11-29T07:31:08.779Z,99.90
2022-11-29T07:34:02.756Z,99.90
2022-11-29T07:36:32.730Z,99.90
2022-11-29T07:39:29.115Z,99.90
2022-11-29T07:42:20.770Z,99.90
2022-11-29T07:44:59.984Z,99.90
2022-11-29T07:47:30.085Z,99.90
2022-11-29T07:50:01.436Z,99.90
2022-11-29T07:52:28.955Z,99.90
2022-11-29T07:54:56.482Z,99.90
2022-11-29T07:57:23.588Z,99.90
2022-11-29T07:59:50.917Z,99.90
2022-11-29T08:02:27.976Z,99.90
2022-11-29T08:04:55.257Z,99.90
2022-11-29T08:07:24.035Z,99.90
2022-11-29T08:09:51.277Z,99.90
2022-11-29T08:12:18.896Z,99.90
2022-11-29T08:14:46.474Z,99.90
2022-11-29T08:17:13.753Z,99.90
2022-11-29T08:19:43.109Z,99.90
2022-11-29T08:22:10.328Z,99.90
2022-11-29T08:24:37.563Z,99.90
2022-11-29T08:27:04.939Z,99.90
2022-11-29T08:29:32.312Z,99.90
2022-11-29T08:31:59.716Z,99.90
2022-11-29T08:34:27.301Z,99.90
2022-11-29T08:36:57.612Z,99.90
2022-11-29T08:39:24.961Z,99.90
2022-11-29T08:41:52.207Z,99.90
2022-11-29T08:44:19.634Z,99.90
2022-11-29T08:47:05.205Z,99.90
2022-11-29T08:49:32.490Z,99.90
2022-11-29T08:52:19.843Z,99.90
2022-11-29T08:54:47.524Z,99.90
2022-11-29T08:57:38.976Z,99.90
2022-11-29T09:00:02.844Z,99.90
2022-11-29T09:02:30.175Z,99.90
2022-11-29T09:04:57.644Z,99.90
2022-11-29T09:07:25.049Z,99.90
2022-11-29T09:09:52.341Z,99.90
2022-11-29T09:12:19.471Z,99.90
2022-11-29T09:14:46.872Z,99.90
2022-11-29T09:17:14.297Z,99.90
2022-11-29T09:19:41.392Z,99.90
2022-11-29T09:22:08.626Z,99.90
2022-11-29T09:24:35.959Z,99.90
2022-11-29T09:27:03.235Z,99.90
2022-11-29T09:29:30.637Z,99.90
2022-11-29T09:31:57.851Z,99.90
2022-11-29T09:34:25.079Z,99.90
2022-11-29T09:36:52.455Z,99.90
2022-11-29T09:39:19.661Z,99.90
2022-11-29T09:42:21.071Z,99.90
2022-11-29T09:45:11.185Z,99.90
2022-11-29T09:48:00.088Z,99.90
2022-11-29T09:50:43.058Z,99.90
2022-11-29T09:53:28.554Z,99.90
2022-11-29T09:56:12.367Z,99.90
2022-11-29T09:58:49.853Z,99.90
2022-11-29T10:01:26.540Z,99.90
2022-11-29T10:03:57.949Z,99.90
2022-11-29T10:06:40.682Z,99.90
2022-11-29T10:09:17.189Z,99.90
2022-11-29T10:11:54.870Z,99.90
2022-11-29T10:14:48.703Z,99.90
2022-11-29T10:17:40.785Z,99.90
2022-11-29T10:20:19.096Z,99.90
2022-11-29T10:22:53.389Z,99.90
2022-11-29T10:25:30.889Z,99.90
2022-11-29T10:27:58.732Z,99.90
2022-11-29T10:30:25.898Z,99.90
2022-11-29T10:33:00.291Z,99.90
2022-11-29T10:35:29.610Z,99.90
2022-11-29T10:38:30.261Z,99.90
2022-11-29T10:40:53.108Z,99.90
2022-11-29T10:43:20.798Z,99.90
2022-11-29T10:45:56.267Z,99.90
2022-11-29T10:48:27.721Z,99.90
2022-11-29T10:50:55.040Z,99.90
2022-11-29T10:53:36.771Z,99.90
2022-11-29T10:56:38.306Z,99.90
2022-11-29T10:59:09.330Z,99.90
2022-11-29T11:01:38.663Z,99.90
2022-11-29T11:04:10.084Z,99.90
2022-11-29T11:06:53.390Z,99.90
2022-11-29T11:09:32.763Z,99.90
2022-11-29T11:12:08.235Z,99.90
2022-11-29T11:14:38.081Z,99.90
2022-11-29T11:17:37.942Z,99.90
2022-11-29T11:20:27.457Z,99.40
2022-11-29T11:23:04.625Z,99.70
2022-11-29T11:25:39.813Z,94.70
2022-11-29T11:28:20.565Z,93.80
2022-11-29T11:30:55.105Z,86.90
2022-11-29T11:33:28.208Z,85.90
2022-11-29T11:36:27.241Z,85.60
2022-11-29T11:38:54.760Z,85.40
2022-11-29T11:41:47.061Z,81.40
2022-11-29T11:44:47.527Z,82.30
2022-11-29T11:47:22.802Z,82.40
2022-11-29T11:50:00.647Z,77.60
2022-11-29T11:52:40.516Z,77.50
2022-11-29T11:55:30.688Z,77.80
2022-11-29T11:58:16.367Z,78.80
2022-11-29T12:01:13.681Z,76.70
2022-11-29T12:03:58.259Z,75.50
2022-11-29T12:06:42.894Z,73.10
2022-11-29T12:09:18.867Z,70.70
2022-11-29T12:12:06.107Z,73.80
2022-11-29T12:14:48.423Z,74.00
2022-11-29T12:17:35.179Z,69.50
2022-11-29T12:20:11.190Z,68.40
2022-11-29T12:22:57.729Z,67.90
2022-11-29T12:25:30.602Z,70.10
2022-11-29T12:27:57.961Z,70.60
2022-11-29T12:30:25.262Z,70.60
2022-11-29T12:33:15.513Z,72.30
2022-11-29T12:36:12.458Z,72.20
2022-11-29T12:39:07.657Z,73.40
2022-11-29T12:42:22.919Z,73.80
2022-11-29T12:45:16.598Z,75.20
2022-11-29T12:48:03.588Z,73.40
2022-11-29T12:50:50.930Z,72.80
2022-11-29T12:53:29.801Z,72.50
2022-11-29T12:56:19.287Z,71.40
2022-11-29T12:59:25.438Z,71.70
2022-11-29T13:02:33.784Z,74.10
2022-11-29T13:05:22.637Z,73.90
2022-11-29T13:08:10.142Z,75.70
2022-11-29T13:10:52.562Z,75.00
2022-11-29T13:13:36.873Z,75.20
2022-11-29T13:16:30.835Z,75.00
2022-11-29T13:19:33.105Z,74.00
2022-11-29T13:22:11.135Z,75.50
2022-11-29T13:24:46.698Z,74.30
2022-11-29T13:27:28.670Z,75.00
2022-11-29T13:29:58.628Z,74.10
2022-11-29T13:32:43.066Z,74.50
2022-11-29T13:35:38.065Z,74.70
2022-11-29T13:38:05.450Z,73.20
2022-11-29T13:40:38.341Z,74.20
2022-11-29T13:43:31.087Z,75.10
2022-11-29T13:46:21.816Z,74.80
2022-11-29T13:48:54.411Z,75.40
2022-11-29T13:51:44.554Z,75.10
2022-11-29T13:54:30.931Z,74.80
2022-11-29T13:57:09.633Z,76.10
2022-11-29T13:59:44.267Z,76.80
2022-11-29T14:02:30.889Z,75.20
2022-11-29T14:04:58.566Z,74.70
2022-11-29T14:07:26.092Z,74.80
2022-11-29T14:09:57.340Z,76.00
2022-11-29T14:12:55.108Z,76.50
2022-11-29T14:15:32.213Z,76.50
2022-11-29T14:18:08.398Z,76.10
2022-11-29T14:20:41.388Z,76.60
2022-11-29T14:23:08.540Z,75.50
2022-11-29T14:25:55.246Z,75.80
2022-11-29T14:28:22.511Z,76.30
2022-11-29T14:31:03.682Z,76.20
2022-11-29T14:34:13.598Z,76.40
2022-11-29T14:37:06.803Z,75.80
2022-11-29T14:39:46.878Z,77.20
2022-11-29T14:42:22.218Z,76.70
2022-11-29T14:44:56.150Z,76.50
2022-11-29T14:47:30.046Z,76.80
2022-11-29T14:49:59.763Z,76.10
2022-11-29T14:52:38.730Z,77.10
2022-11-29T14:55:06.246Z,78.00
2022-11-29T14:57:54.926Z,77.80
2022-11-29T15:00:29.474Z,78.60
2022-11-29T15:03:14.425Z,81.20
2022-11-29T15:05:45.155Z,81.60
2022-11-29T15:08:16.488Z,83.50
2022-11-29T15:10:53.455Z,82.40
2022-11-29T15:13:27.190Z,82.20
2022-11-29T15:16:13.647Z,82.60
2022-11-29T15:19:04.114Z,83.20
2022-11-29T15:21:34.016Z,83.20
2022-11-29T15:24:13.435Z,82.10
2022-11-29T15:27:00.945Z,82.60
2022-11-29T15:29:29.747Z,83.30
2022-11-29T15:32:03.900Z,82.80
2022-11-29T15:34:37.037Z,81.90
2022-11-29T15:37:04.778Z,82.90
2022-11-29T15:39:34.801Z,82.90
2022-11-29T15:42:12.173Z,83.00
2022-11-29T15:44:46.290Z,83.20
2022-11-29T15:47:25.150Z,82.60
2022-11-29T15:49:54.038Z,83.60
2022-11-29T15:52:34.694Z,83.80
2022-11-29T15:55:05.767Z,85.00
2022-11-29T15:57:38.418Z,85.70
2022-11-29T16:00:08.381Z,86.30
2022-11-29T16:02:39.682Z,86.80
2022-11-29T16:05:15.998Z,87.50
2022-11-29T16:07:45.259Z,87.90
2022-11-29T16:10:18.334Z,88.60
2022-11-29T16:13:05.944Z,89.20
2022-11-29T16:15:36.577Z,90.20
2022-11-29T16:18:13.832Z,90.30
2022-11-29T16:20:43.595Z,90.80
2022-11-29T16:23:13.507Z,91.60
2022-11-29T16:26:13.625Z,92.00
2022-11-29T16:28:47.134Z,91.40
2022-11-29T16:31:36.396Z,91.00
2022-11-29T16:34:29.991Z,91.70
2022-11-29T16:37:04.036Z,92.00
2022-11-29T16:39:31.708Z,91.80
2022-11-29T16:42:23.423Z,92.30
2022-11-29T16:45:01.947Z,92.60
2022-11-29T16:47:47.489Z,93.00
2022-11-29T16:50:19.974Z,93.70
2022-11-29T16:52:50.872Z,94.40
2022-11-29T16:55:22.471Z,94.50
2022-11-29T16:57:50.020Z,94.20
2022-11-29T17:00:32.517Z,94.30
2022-11-29T17:03:00.114Z,93.80
2022-11-29T17:05:27.871Z,93.70
2022-11-29T17:07:55.148Z,93.60
2022-11-29T17:10:25.225Z,93.60
2022-11-29T17:12:52.867Z,93.80
2022-11-29T17:15:20.072Z,93.70
2022-11-29T17:17:47.201Z,93.30
2022-11-29T17:20:14.514Z,93.10
2022-11-29T17:22:42.058Z,93.30
2022-11-29T17:25:10.081Z,93.00
2022-11-29T17:27:37.463Z,93.00
2022-11-29T17:30:06.196Z,93.00
2022-11-29T17:32:36.120Z,92.70
2022-11-29T17:35:03.747Z,92.50
2022-11-29T17:37:31.397Z,92.30
2022-11-29T17:39:58.671Z,91.40
2022-11-29T17:42:25.863Z,90.80
2022-11-29T17:44:53.097Z,90.30
2022-11-29T17:47:20.210Z,90.40
2022-11-29T17:49:47.796Z,90.20
2022-11-29T17:52:15.463Z,90.10
2022-11-29T17:54:42.579Z,90.10
2022-11-29T17:57:10.421Z,89.50
2022-11-29T17:59:37.585Z,88.70
2022-11-29T18:02:04.909Z,88.90
2022-11-29T18:04:32.109Z,88.70
2022-11-29T18:06:59.422Z,88.50
2022-11-29T18:09:26.689Z,88.00
2022-11-29T18:11:53.806Z,88.90
2022-11-29T18:14:23.956Z,88.70
2022-11-29T18:16:52.201Z,88.80
2022-11-29T18:19:22.251Z,89.10
2022-11-29T18:21:50.366Z,88.60
2022-11-29T18:24:18.202Z,89.30
2022-11-29T18:26:46.065Z,90.30
2022-11-29T18:29:13.369Z,89.90
2022-11-29T18:31:43.033Z,90.40
2022-11-29T18:34:13.313Z,90.10
2022-11-29T18:36:46.058Z,89.80
2022-11-29T18:39:16.374Z,91.10
2022-11-29T18:41:45.546Z,91.60
2022-11-29T18:44:14.696Z,92.50
2022-11-29T18:46:43.971Z,92.60
2022-11-29T18:49:18.254Z,93.60
2022-11-29T18:51:46.601Z,94.30
2022-11-29T18:54:16.089Z,95.60
2022-11-29T18:56:44.276Z,98.00
2022-11-29T18:59:14.934Z,99.90
2022-11-29T19:01:45.362Z,99.90
2022-11-29T19:04:15.352Z,99.90
2022-11-29T19:06:43.265Z,99.90
2022-11-29T19:09:21.739Z,99.90
2022-11-29T19:11:49.947Z,99.90
2022-11-29T19:14:17.173Z,99.90
2022-11-29T19:16:46.564Z,99.90
2022-11-29T19:19:13.973Z,99.90
2022-11-29T19:21:41.631Z,99.90
2022-11-29T19:24:14.830Z,99.90
2022-11-29T19:26:44.934Z,99.90
2022-11-29T19:29:13.437Z,99.90
2022-11-29T19:31:40.508Z,99.90
2022-11-29T19:34:08.154Z,99.90
2022-11-29T19:36:43.961Z,99.90
2022-11-29T19:39:14.286Z,99.90
2022-11-29T19:41:46.150Z,99.90
2022-11-29T19:44:13.348Z,99.90
2022-11-29T19:46:43.303Z,99.90
2022-11-29T19:49:11.173Z,99.90
2022-11-29T19:51:38.639Z,99.90
2022-11-29T19:54:07.921Z,99.90
2022-11-29T19:56:35.434Z,99.90
2022-11-29T19:59:02.783Z,99.90
2022-11-29T20:01:39.311Z,99.90
2022-11-29T20:04:08.938Z,99.90
2022-11-29T20:06:36.298Z,99.90
2022-11-29T20:09:04.004Z,99.90
2022-11-29T20:11:31.139Z,99.90
2022-11-29T20:14:02.981Z,99.90
2022-11-29T20:16:31.221Z,99.90
2022-11-29T20:18:59.162Z,99.90
2022-11-29T20:21:29.384Z,99.90
2022-11-29T20:24:01.892Z,99.90
2022-11-29T20:26:30.045Z,99.90
2022-11-29T20:28:58.694Z,99.90
2022-11-29T20:31:26.147Z,99.90
2022-11-29T20:33:54.667Z,99.90
2022-11-29T20:36:36.545Z,99.90
2022-11-29T20:39:29.127Z,99.90
2022-11-29T20:42:28.672Z,99.90
2022-11-29T20:44:58.437Z,99.90
2022-11-29T20:47:28.192Z,99.90
2022-11-29T20:49:55.565Z,99.90
2022-11-29T20:52:41.192Z,99.90
2022-11-29T20:55:08.904Z,99.90
2022-11-29T20:57:38.430Z,99.90
2022-11-29T21:00:11.417Z,99.90
2022-11-29T21:02:39.436Z,99.90
2022-11-29T21:05:07.116Z,99.90
2022-11-29T21:07:34.819Z,99.90
2022-11-29T21:10:02.216Z,99.90
2022-11-29T21:12:30.899Z,99.90
2022-11-29T21:14:58.714Z,99.90
2022-11-29T21:17:31.832Z,99.90
2022-11-29T21:20:01.234Z,99.90
2022-11-29T21:22:42.317Z,99.90
2022-11-29T21:25:27.174Z,99.90
2022-11-29T21:27:55.750Z,99.90
2022-11-29T21:30:25.053Z,99.90
2022-11-29T21:32:53.023Z,99.90
2022-11-29T21:35:20.067Z,99.90
2022-11-29T21:37:47.525Z,99.90
2022-11-29T21:40:15.425Z,99.90
2022-11-29T21:42:42.697Z,99.90
2022-11-29T21:45:15.293Z,99.90
2022-11-29T21:47:44.220Z,99.90
2022-11-29T21:50:13.358Z,99.90
2022-11-29T21:52:40.843Z,99.90
2022-11-29T21:55:08.442Z,99.90
2022-11-29T21:57:35.842Z,99.90
2022-11-29T22:00:04.098Z,99.90
2022-11-29T22:02:31.607Z,99.90
2022-11-29T22:04:58.738Z,99.90
2022-11-29T22:07:25.891Z,99.90
2022-11-29T22:09:53.027Z,99.90
2022-11-29T22:12:33.825Z,99.90
2022-11-29T22:15:01.942Z,99.90
2022-11-29T22:17:29.030Z,99.90
2022-11-29T22:19:56.154Z,99.90
2022-11-29T22:22:27.103Z,99.90
2022-11-29T22:24:55.373Z,99.90
2022-11-29T22:27:22.507Z,99.90
2022-11-29T22:29:49.730Z,99.90
2022-11-29T22:32:16.774Z,99.90
2022-11-29T22:34:44.120Z,99.90
2022-11-29T22:37:12.548Z,99.90
2022-11-29T22:39:39.842Z,99.90
2022-11-29T22:42:07.695Z,99.90
2022-11-29T22:44:34.858Z,99.90
2022-11-29T22:47:02.001Z,99.90
2022-11-29T22:49:30.175Z,99.90
2022-11-29T22:51:57.375Z,99.90
2022-11-29T22:54:24.586Z,99.90
2022-11-29T22:56:52.546Z,99.90
2022-11-29T22:59:19.672Z,99.90
2022-11-29T23:01:47.144Z,99.90
2022-11-29T23:04:14.378Z,99.90
2022-11-29T23:06:44.501Z,99.90
2022-11-29T23:09:17.362Z,99.90
2022-11-29T23:11:46.186Z,99.90
2022-11-29T23:14:13.617Z,99.90
2022-11-29T23:16:40.911Z,99.90
2022-11-29T23:19:08.261Z,99.90
2022-11-29T23:21:37.893Z,99.90
2022-11-29T23:24:05.455Z,99.90
2022-11-29T23:26:40.771Z,99.90
2022-11-29T23:29:11.776Z,99.90
2022-11-29T23:31:39.636Z,99.90
2022-11-29T23:34:06.922Z,99.90
2022-11-29T23:36:34.579Z,99.90
2022-11-29T23:39:04.872Z,99.90
2022-11-29T23:41:32.282Z,99.90
2022-11-29T23:44:02.662Z,99.90
2022-11-29T23:46:29.761Z,99.90
2022-11-29T23:48:56.943Z,99.90
2022-11-29T23:51:24.166Z,99.90
2022-11-29T23:53:53.494Z,99.90
2022-11-29T23:56:21.805Z,99.90
2022-11-29T23:58:49.575Z,99.90
